createdAt,value
2018-07-09T00:00:19.793Z,78.16
2018-07-09T00:02:49.133Z,78.51
2018-07-09T00:05:18.525Z,78.12
2018-07-09T00:07:48.244Z,78.73
2018-07-09T00:10:28.633Z,78.51
2018-07-09T00:12:58.020Z,78.22
2018-07-09T00:15:27.363Z,78.76
2018-07-09T00:17:56.624Z,78.53
2018-07-09T00:20:25.887Z,78.65
2018-07-09T00:22:55.186Z,78.92
2018-07-09T00:25:24.477Z,79.25
2018-07-09T00:27:54.085Z,79.03
2018-07-09T00:30:23.545Z,79.66
2018-07-09T00:32:52.833Z,80.09
2018-07-09T00:35:22.330Z,79.76
2018-07-09T00:37:52.988Z,79.52
2018-07-09T00:40:22.414Z,79.94
2018-07-09T00:42:52.683Z,79.90
2018-07-09T00:45:23.004Z,79.80
2018-07-09T00:47:52.355Z,79.78
2018-07-09T00:50:21.859Z,80.07
2018-07-09T00:52:51.308Z,80.35
2018-07-09T00:55:20.736Z,79.70
2018-07-09T00:57:50.710Z,80.54
2018-07-09T01:00:20.192Z,79.79
2018-07-09T01:02:49.515Z,80.41
2018-07-09T01:05:19.109Z,80.82
2018-07-09T01:07:48.398Z,80.66
2018-07-09T01:10:18.918Z,80.26
2018-07-09T01:12:48.677Z,80.83
2018-07-09T01:15:18.175Z,81.10
2018-07-09T01:17:47.769Z,81.42
2018-07-09T01:20:17.496Z,81.56
2018-07-09T01:22:47.066Z,81.79
2018-07-09T01:25:16.720Z,81.91
2018-07-09T01:27:46.182Z,81.79
2018-07-09T01:30:16.564Z,81.83
2018-07-09T01:32:45.885Z,81.76
2018-07-09T01:35:15.729Z,82.09
2018-07-09T01:37:45.039Z,82.19
2018-07-09T01:40:14.625Z,82.54
2018-07-09T01:42:44.360Z,82.74
2018-07-09T01:45:14.368Z,82.58
2018-07-09T01:47:43.955Z,82.37
2018-07-09T01:50:15.615Z,82.77
2018-07-09T01:52:45.198Z,82.49
2018-07-09T01:55:14.689Z,82.58
2018-07-09T01:57:44.325Z,82.82
2018-07-09T02:00:14.071Z,82.58
2018-07-09T02:02:43.968Z,82.76
2018-07-09T02:05:13.405Z,83.43
2018-07-09T02:07:42.850Z,83.54
2018-07-09T02:10:12.284Z,83.57
2018-07-09T02:12:41.780Z,83.62
2018-07-09T02:15:11.264Z,83.24
2018-07-09T02:17:40.825Z,83.58
2018-07-09T02:20:10.206Z,83.62
2018-07-09T02:22:39.601Z,83.75
2018-07-09T02:25:09.025Z,83.25
2018-07-09T02:27:38.417Z,83.82
2018-07-09T02:30:07.881Z,83.92
2018-07-09T02:32:38.453Z,84.02
2018-07-09T02:35:08.850Z,84.38
2018-07-09T02:37:38.291Z,84.57
2018-07-09T02:40:07.980Z,84.34
2018-07-09T02:42:37.388Z,84.82
2018-07-09T02:45:07.401Z,84.24
2018-07-09T02:47:37.108Z,85.04
2018-07-09T02:50:07.740Z,85.08
2018-07-09T02:52:37.495Z,85.13
2018-07-09T02:55:07.268Z,84.78
2018-07-09T02:57:37.178Z,85.41
2018-07-09T03:00:07.711Z,85.03
2018-07-09T03:02:37.449Z,85.01
2018-07-09T03:05:07.233Z,85.34
2018-07-09T03:07:36.876Z,84.89
2018-07-09T03:10:07.061Z,85.23
2018-07-09T03:12:36.682Z,85.38
2018-07-09T03:15:06.420Z,85.13
2018-07-09T03:17:36.044Z,85.08
2018-07-09T03:20:06.337Z,85.40
2018-07-09T03:22:37.564Z,85.12
2018-07-09T03:25:08.272Z,84.91
2018-07-09T03:27:37.990Z,85.30
2018-07-09T03:30:08.053Z,84.24
2018-07-09T03:32:37.929Z,84.78
2018-07-09T03:35:07.493Z,84.75
2018-07-09T03:37:37.122Z,84.20
2018-07-09T03:40:07.174Z,83.71
2018-07-09T03:42:38.013Z,83.50
2018-07-09T03:45:07.922Z,83.68
2018-07-09T03:47:37.799Z,84.11
2018-07-09T03:50:07.368Z,83.67
2018-07-09T03:52:37.730Z,83.50
2018-07-09T03:55:07.675Z,84.35
2018-07-09T03:57:37.235Z,83.45
2018-07-09T04:00:07.705Z,84.20
2018-07-09T04:02:37.761Z,83.45
2018-07-09T04:05:07.368Z,83.17
2018-07-09T04:07:37.426Z,83.00
2018-07-09T04:10:07.297Z,83.14
2018-07-09T04:12:36.875Z,84.16
2018-07-09T04:15:06.565Z,83.76
2018-07-09T04:17:36.307Z,83.82
2018-07-09T04:20:05.894Z,84.71
2018-07-09T04:22:35.750Z,84.89
2018-07-09T04:25:05.118Z,83.94
2018-07-09T04:27:35.041Z,84.18
2018-07-09T04:30:05.400Z,83.95
2018-07-09T04:32:35.369Z,83.99
2018-07-09T04:35:05.021Z,84.22
2018-07-09T04:37:34.944Z,83.80
2018-07-09T04:40:05.859Z,83.57
2018-07-09T04:42:35.502Z,83.17
2018-07-09T04:45:06.184Z,82.94
2018-07-09T04:47:36.682Z,82.81
2018-07-09T04:50:06.770Z,82.52
2018-07-09T04:52:38.607Z,82.25
2018-07-09T04:55:08.487Z,81.95
2018-07-09T04:57:38.143Z,81.80
2018-07-09T05:00:08.419Z,81.93
2018-07-09T05:02:38.231Z,81.88
2018-07-09T05:05:08.114Z,82.05
2018-07-09T05:07:37.705Z,82.20
2018-07-09T05:10:08.113Z,82.27
2018-07-09T05:12:38.492Z,81.84
2018-07-09T05:15:08.422Z,81.63
2018-07-09T05:17:38.061Z,81.10
2018-07-09T05:20:08.238Z,80.29
2018-07-09T05:22:37.801Z,80.25
2018-07-09T05:25:07.371Z,80.37
2018-07-09T05:27:37.131Z,80.58
2018-07-09T05:30:06.869Z,80.30
2018-07-09T05:32:36.662Z,80.12
2018-07-09T05:35:06.336Z,80.13
2018-07-09T05:37:35.863Z,78.80
2018-07-09T05:40:05.788Z,78.96
2018-07-09T05:42:36.786Z,79.54
2018-07-09T05:45:07.118Z,80.06
2018-07-09T05:47:37.101Z,79.23
2018-07-09T05:50:07.039Z,78.65
2018-07-09T05:52:36.701Z,77.28
2018-07-09T05:55:06.608Z,76.67
2018-07-09T05:57:37.117Z,75.68
2018-07-09T06:00:06.781Z,75.57
2018-07-09T06:02:36.856Z,75.28
2018-07-09T06:05:06.674Z,74.51
2018-07-09T06:07:36.671Z,74.35
2018-07-09T06:10:06.703Z,74.21
2018-07-09T06:12:36.426Z,73.70
2018-07-09T06:15:05.918Z,72.55
2018-07-09T06:17:36.376Z,72.98
2018-07-09T06:20:06.563Z,72.74
2018-07-09T06:22:37.100Z,72.54
2018-07-09T06:25:08.238Z,72.36
2018-07-09T06:27:38.655Z,72.82
2018-07-09T06:30:09.126Z,71.64
2018-07-09T06:32:38.615Z,72.06
2018-07-09T06:35:08.524Z,72.12
2018-07-09T06:37:39.466Z,71.42
2018-07-09T06:40:09.074Z,70.71
2018-07-09T06:42:38.781Z,69.90
2018-07-09T06:45:10.290Z,69.49
2018-07-09T06:47:40.060Z,68.35
2018-07-09T06:50:10.011Z,67.62
2018-07-09T06:52:40.036Z,66.79
2018-07-09T06:55:09.996Z,65.89
2018-07-09T06:57:39.602Z,64.53
2018-07-09T07:00:09.267Z,65.06
2018-07-09T07:02:38.812Z,65.52
2018-07-09T07:05:08.430Z,64.65
2018-07-09T07:07:38.136Z,64.32
2018-07-09T07:10:07.813Z,63.96
2018-07-09T07:12:37.541Z,63.10
2018-07-09T07:15:07.258Z,62.92
2018-07-09T07:17:36.602Z,62.02
2018-07-09T07:20:06.678Z,61.27
2018-07-09T07:22:37.613Z,61.01
2018-07-09T07:25:07.424Z,60.33
2018-07-09T07:27:36.901Z,59.99
2018-07-09T07:30:06.506Z,60.28
2018-07-09T07:32:36.511Z,59.74
2018-07-09T07:35:07.906Z,60.71
2018-07-09T07:37:37.740Z,59.60
2018-07-09T07:40:20.200Z,58.75
2018-07-09T07:42:49.690Z,57.90
2018-07-09T07:45:19.092Z,58.08
2018-07-09T07:47:48.553Z,57.83
2018-07-09T07:50:18.241Z,58.29
2018-07-09T07:52:48.437Z,57.71
2018-07-09T07:55:18.583Z,57.62
2018-07-09T07:57:48.119Z,57.71
2018-07-09T08:00:17.555Z,56.91
2018-07-09T08:02:47.364Z,57.33
2018-07-09T08:05:16.707Z,57.45
2018-07-09T08:07:46.224Z,55.87
2018-07-09T08:10:21.629Z,55.50
2018-07-09T08:15:21.136Z,54.77
2018-07-09T08:17:51.453Z,54.15
2018-07-09T08:20:20.771Z,55.18
2018-07-09T08:22:50.159Z,53.57
2018-07-09T08:25:20.819Z,55.14
2018-07-09T08:27:50.192Z,55.23
2018-07-09T08:30:20.634Z,54.88
2018-07-09T08:32:50.201Z,55.85
2018-07-09T08:35:21.175Z,55.36
2018-07-09T08:37:50.593Z,55.14
2018-07-09T08:40:20.712Z,55.19
2018-07-09T08:42:50.126Z,54.38
2018-07-09T08:45:19.533Z,54.31
2018-07-09T08:47:49.262Z,53.83
2018-07-09T08:50:19.773Z,53.49
2018-07-09T08:52:49.242Z,54.69
2018-07-09T08:55:20.413Z,54.38
2018-07-09T08:57:49.950Z,54.61
2018-07-09T09:00:23.106Z,54.19
2018-07-09T09:02:52.646Z,54.43
2018-07-09T09:05:22.029Z,54.12
2018-07-09T09:07:51.478Z,54.09
2018-07-09T09:10:20.990Z,54.12
2018-07-09T09:12:50.379Z,54.51
2018-07-09T09:15:20.400Z,55.37
2018-07-09T09:17:49.854Z,55.17
2018-07-09T09:20:20.085Z,55.70
2018-07-09T09:22:49.861Z,56.59
2018-07-09T09:25:19.281Z,56.46
2018-07-09T09:27:48.654Z,56.82
2018-07-09T09:30:19.302Z,57.25
2018-07-09T09:32:48.794Z,56.96
2018-07-09T09:35:18.341Z,57.08
2018-07-09T09:37:47.795Z,57.91
2018-07-09T09:40:17.303Z,58.48
2018-07-09T09:42:46.870Z,58.59
2018-07-09T09:45:23.090Z,58.58
2018-07-09T09:47:52.853Z,58.29
2018-07-09T09:50:22.193Z,57.39
2018-07-09T09:52:51.529Z,57.63
2018-07-09T09:55:22.170Z,58.94
2018-07-09T09:57:51.739Z,58.46
2018-07-09T10:00:25.258Z,58.09
2018-07-09T10:02:54.658Z,57.49
2018-07-09T10:05:24.034Z,57.11
2018-07-09T10:07:53.359Z,56.85
2018-07-09T10:10:23.227Z,57.66
2018-07-09T10:12:52.486Z,58.21
2018-07-09T10:15:22.059Z,57.95
2018-07-09T10:17:52.099Z,57.89
2018-07-09T10:20:21.422Z,58.43
2018-07-09T10:22:50.966Z,58.42
2018-07-09T10:25:20.473Z,58.53
2018-07-09T10:27:49.908Z,58.33
2018-07-09T10:30:21.134Z,57.63
2018-07-09T10:32:50.703Z,56.40
2018-07-09T10:35:20.061Z,56.57
2018-07-09T10:37:49.585Z,56.59
2018-07-09T10:40:20.157Z,57.32
2018-07-09T10:42:49.420Z,57.51
2018-07-09T10:45:18.743Z,57.25
2018-07-09T10:47:48.366Z,56.86
2018-07-09T10:50:18.716Z,56.48
2018-07-09T10:52:48.085Z,56.92
2018-07-09T10:55:17.643Z,57.48
2018-07-09T10:57:47.216Z,58.05
2018-07-09T11:00:16.936Z,57.94
2018-07-09T11:02:46.644Z,57.67
2018-07-09T11:05:16.561Z,57.35
2018-07-09T11:07:46.211Z,57.20
2018-07-09T11:10:16.219Z,57.12
2018-07-09T11:12:45.882Z,56.40
2018-07-09T11:15:15.386Z,56.43
2018-07-09T11:17:45.118Z,56.15
2018-07-09T11:20:14.962Z,55.37
2018-07-09T11:22:44.758Z,56.56
2018-07-09T11:25:14.741Z,56.39
2018-07-09T11:27:44.279Z,56.43
2018-07-09T11:30:13.806Z,55.79
2018-07-09T11:32:43.621Z,55.63
2018-07-09T11:35:13.087Z,55.97
2018-07-09T11:37:42.473Z,56.24
2018-07-09T11:40:12.259Z,56.78
2018-07-09T11:42:42.014Z,56.76
2018-07-09T11:45:11.633Z,55.60
2018-07-09T11:47:41.268Z,55.40
2018-07-09T11:50:10.986Z,55.40
2018-07-09T11:52:40.659Z,55.12
2018-07-09T11:55:10.366Z,55.17
2018-07-09T11:57:40.072Z,54.08
2018-07-09T12:00:09.679Z,53.95
2018-07-09T12:02:39.965Z,53.99
2018-07-09T12:05:09.625Z,54.28
2018-07-09T12:07:39.339Z,53.42
2018-07-09T12:10:10.030Z,52.89
2018-07-09T12:12:39.969Z,52.02
2018-07-09T12:15:09.618Z,52.10
2018-07-09T12:17:40.108Z,51.82
2018-07-09T12:20:09.801Z,52.24
2018-07-09T12:22:39.664Z,52.31
2018-07-09T12:25:09.770Z,53.33
2018-07-09T12:27:40.378Z,53.13
2018-07-09T12:30:10.614Z,53.77
2018-07-09T12:32:42.551Z,53.53
2018-07-09T12:35:12.825Z,54.27
2018-07-09T12:37:42.577Z,54.82
2018-07-09T12:40:12.448Z,55.26
2018-07-09T12:42:42.133Z,54.95
2018-07-09T12:45:11.768Z,54.95
2018-07-09T12:47:41.633Z,56.11
2018-07-09T12:50:11.445Z,55.77
2018-07-09T12:52:41.053Z,54.44
2018-07-09T12:55:10.924Z,53.62
2018-07-09T12:57:40.467Z,53.41
2018-07-09T13:01:13.364Z,53.64
2018-07-09T13:03:43.607Z,52.15
2018-07-09T13:06:13.549Z,51.70
2018-07-09T13:08:43.697Z,50.84
2018-07-09T13:11:13.470Z,49.17
2018-07-09T13:13:42.933Z,49.69
2018-07-09T13:16:12.660Z,48.68
2018-07-09T13:18:42.511Z,48.37
2018-07-09T13:21:12.323Z,47.71
2018-07-09T13:23:42.113Z,44.40
2018-07-09T13:26:12.522Z,44.57
2018-07-09T13:28:42.426Z,45.69
2018-07-09T13:31:12.865Z,47.17
2018-07-09T13:33:42.584Z,47.32
2018-07-09T13:36:12.374Z,47.65
2018-07-09T13:38:42.164Z,48.88
2018-07-09T13:41:11.922Z,49.55
2018-07-09T13:43:41.777Z,50.47
2018-07-09T13:46:12.290Z,49.04
2018-07-09T13:48:42.321Z,47.96
2018-07-09T13:51:12.339Z,47.06
2018-07-09T13:53:42.928Z,47.06
2018-07-09T13:56:12.650Z,48.40
2018-07-09T13:58:43.318Z,47.93
2018-07-09T14:01:12.949Z,46.48
2018-07-09T14:03:42.725Z,46.36
2018-07-09T14:06:12.397Z,45.46
2018-07-09T14:08:41.911Z,46.87
2018-07-09T14:11:11.576Z,46.91
2018-07-09T14:13:41.321Z,47.67
2018-07-09T14:16:11.193Z,46.80
2018-07-09T14:18:41.254Z,45.93
2018-07-09T14:21:10.935Z,48.01
2018-07-09T14:23:43.228Z,47.10
2018-07-09T14:26:21.290Z,47.18
2018-07-09T14:29:06.296Z,47.02
2018-07-09T14:31:38.000Z,47.40
2018-07-09T14:34:07.684Z,47.12
2018-07-09T14:36:37.668Z,46.39
2018-07-09T14:39:07.292Z,47.98
2018-07-09T14:41:37.729Z,48.16
2018-07-09T14:44:07.273Z,48.51
2018-07-09T14:46:36.853Z,48.92
2018-07-09T14:49:07.027Z,49.41
2018-07-09T14:51:36.857Z,49.54
2018-07-09T14:54:06.976Z,50.08
2018-07-09T14:56:37.084Z,51.20
2018-07-09T14:59:07.207Z,52.19
2018-07-09T15:01:36.868Z,52.77
2018-07-09T15:04:06.958Z,53.65
2018-07-09T15:06:37.637Z,53.94
2018-07-09T15:09:07.509Z,52.54
2018-07-09T15:11:37.233Z,52.26
2018-07-09T15:14:07.822Z,51.90
2018-07-09T15:16:37.460Z,52.60
2018-07-09T15:19:07.579Z,53.11
2018-07-09T15:21:37.652Z,52.92
2018-07-09T15:24:07.626Z,54.49
2018-07-09T15:26:37.979Z,54.98
2018-07-09T15:29:07.831Z,54.31
2018-07-09T15:31:47.368Z,53.92
2018-07-09T15:34:16.717Z,52.18
2018-07-09T15:36:46.001Z,51.29
2018-07-09T15:39:15.802Z,49.56
2018-07-09T15:41:45.229Z,49.54
2018-07-09T15:44:15.982Z,49.22
2018-07-09T15:46:45.657Z,49.91
2018-07-09T15:49:15.091Z,50.97
2018-07-09T15:51:44.569Z,51.94
2018-07-09T15:54:14.480Z,52.78
2018-07-09T15:56:44.155Z,53.82
2018-07-09T15:59:13.688Z,53.50
2018-07-09T16:01:43.641Z,55.22
2018-07-09T16:04:13.430Z,55.57
2018-07-09T16:06:43.129Z,56.38
2018-07-09T16:09:12.984Z,56.75
2018-07-09T16:11:42.515Z,56.63
2018-07-09T16:14:11.951Z,56.25
2018-07-09T16:16:41.846Z,56.21
2018-07-09T16:19:11.277Z,56.67
2018-07-09T16:21:40.904Z,57.04
2018-07-09T16:24:11.437Z,57.23
2018-07-09T16:26:40.949Z,56.72
2018-07-09T16:29:10.859Z,57.47
2018-07-09T16:31:40.432Z,57.22
2018-07-09T16:34:10.118Z,56.76
2018-07-09T16:36:39.752Z,56.36
2018-07-09T16:39:09.926Z,56.88
2018-07-09T16:41:39.475Z,56.44
2018-07-09T16:44:09.435Z,55.93
2018-07-09T16:46:39.543Z,55.54
2018-07-09T16:49:09.395Z,56.71
2018-07-09T16:51:39.014Z,56.19
2018-07-09T16:54:09.713Z,56.50
2018-07-09T16:56:39.377Z,57.12
2018-07-09T16:59:09.933Z,57.79
2018-07-09T17:01:39.951Z,58.17
2018-07-09T17:04:09.665Z,58.15
2018-07-09T17:06:39.663Z,58.78
2018-07-09T17:09:09.578Z,58.83
2018-07-09T17:11:39.795Z,58.63
2018-07-09T17:14:09.443Z,58.74
2018-07-09T17:16:40.720Z,58.93
2018-07-09T17:19:10.419Z,59.16
2018-07-09T17:21:40.269Z,59.70
2018-07-09T17:24:10.031Z,59.69
2018-07-09T17:26:39.823Z,59.48
2018-07-09T17:29:09.756Z,59.09
2018-07-09T17:31:39.593Z,59.25
2018-07-09T17:34:09.770Z,59.63
2018-07-09T17:36:39.679Z,58.84
2018-07-09T17:39:09.802Z,58.30
2018-07-09T17:41:39.792Z,57.98
2018-07-09T17:44:10.022Z,57.80
2018-07-09T17:46:40.647Z,58.10
2018-07-09T17:49:10.492Z,57.97
2018-07-09T17:51:40.059Z,58.14
2018-07-09T17:54:10.802Z,58.75
2018-07-09T17:56:41.171Z,59.16
2018-07-09T17:59:11.258Z,59.04
2018-07-09T18:01:41.026Z,59.30
2018-07-09T18:04:11.650Z,59.46
2018-07-09T18:06:41.135Z,59.11
2018-07-09T18:09:10.666Z,59.08
2018-07-09T18:11:40.172Z,59.16
2018-07-09T18:14:09.987Z,59.59
2018-07-09T18:16:40.321Z,59.50
2018-07-09T18:19:10.441Z,60.04
2018-07-09T18:21:40.453Z,60.10
2018-07-09T18:24:10.438Z,60.42
2018-07-09T18:26:40.465Z,60.66
2018-07-09T18:29:10.905Z,60.71
2018-07-09T18:31:41.608Z,60.72
2018-07-09T18:34:11.693Z,60.54
2018-07-09T18:36:41.861Z,60.38
2018-07-09T18:39:13.084Z,60.44
2018-07-09T18:41:43.269Z,60.54
2018-07-09T18:44:13.345Z,60.50
2018-07-09T18:46:43.905Z,60.58
2018-07-09T18:49:13.833Z,60.53
2018-07-09T18:51:44.542Z,60.43
2018-07-09T18:54:14.872Z,60.43
2018-07-09T18:56:44.879Z,59.29
2018-07-09T18:59:14.869Z,58.58
2018-07-09T19:01:45.227Z,58.58
2018-07-09T19:04:15.070Z,58.18
2018-07-09T19:06:52.199Z,58.17
2018-07-09T19:09:22.316Z,58.52
2018-07-09T19:11:52.115Z,59.06
2018-07-09T19:14:54.153Z,59.65
2018-07-09T19:18:02.334Z,60.39
2018-07-09T19:20:43.550Z,60.47
2018-07-09T19:23:12.345Z,60.90
2018-07-09T19:25:40.825Z,61.11
2018-07-09T19:28:09.628Z,61.16
2018-07-09T19:30:38.098Z,61.45
2018-07-09T19:33:06.338Z,61.60
2018-07-09T19:35:34.779Z,62.01
2018-07-09T19:38:02.999Z,61.77
2018-07-09T19:40:31.035Z,61.73
2018-07-09T19:42:59.215Z,61.82
2018-07-09T19:45:27.588Z,61.87
2018-07-09T19:47:55.783Z,63.00
2018-07-09T19:50:23.976Z,63.10
2018-07-09T19:52:52.200Z,63.14
2018-07-09T19:55:20.432Z,63.05
2018-07-09T19:57:49.069Z,63.31
2018-07-09T20:00:17.393Z,63.62
2018-07-09T20:02:45.825Z,64.21
2018-07-09T20:05:14.679Z,63.50
2018-07-09T20:07:43.086Z,64.35
2018-07-09T20:10:17.459Z,64.87
2018-07-09T20:12:50.835Z,64.83
2018-07-09T20:15:24.310Z,64.69
2018-07-09T20:17:52.453Z,65.15
2018-07-09T20:20:20.623Z,65.46
2018-07-09T20:22:49.661Z,65.11
2018-07-09T20:25:18.070Z,65.62
2018-07-09T20:27:46.204Z,66.05
2018-07-09T20:30:16.653Z,65.55
2018-07-09T20:32:45.709Z,65.46
2018-07-09T20:35:14.198Z,65.94
2018-07-09T20:37:43.721Z,65.93
2018-07-09T20:40:12.029Z,66.35
2018-07-09T20:42:40.227Z,66.56
2018-07-09T20:45:08.637Z,65.93
2018-07-09T20:47:37.091Z,66.82
2018-07-09T20:50:05.822Z,66.00
2018-07-09T20:52:35.154Z,66.84
2018-07-09T20:55:03.255Z,66.06
2018-07-09T20:57:32.243Z,66.10
2018-07-09T21:00:01.525Z,66.39
2018-07-09T21:02:29.697Z,66.11
2018-07-09T21:04:57.960Z,66.37
2018-07-09T21:07:26.639Z,67.10
2018-07-09T21:09:55.737Z,66.61
2018-07-09T21:12:23.976Z,66.89
2018-07-09T21:14:52.351Z,67.37
2018-07-09T21:17:20.441Z,67.59
2018-07-09T21:19:48.774Z,67.61
2018-07-09T21:22:16.993Z,67.69
2018-07-09T21:24:45.398Z,68.16
2018-07-09T21:27:13.607Z,68.39
2018-07-09T21:29:41.831Z,68.87
2018-07-09T21:32:10.152Z,68.40
2018-07-09T21:34:38.460Z,68.33
2018-07-09T21:37:06.837Z,68.35
2018-07-09T21:39:35.084Z,68.70
2018-07-09T21:42:03.253Z,68.74
2018-07-09T21:44:32.290Z,68.29
2018-07-09T21:47:00.400Z,69.12
2018-07-09T21:49:28.489Z,68.90
2018-07-09T21:51:56.852Z,69.08
2018-07-09T21:54:24.940Z,68.79
2018-07-09T21:56:53.174Z,69.00
2018-07-09T21:59:21.905Z,69.07
2018-07-09T22:01:50.163Z,69.34
2018-07-09T22:04:18.291Z,68.73
2018-07-09T22:06:47.353Z,68.90
2018-07-09T22:09:15.501Z,69.41
2018-07-09T22:11:43.593Z,69.63
2018-07-09T22:14:12.488Z,69.67
2018-07-09T22:16:40.889Z,69.17
2018-07-09T22:19:10.108Z,69.54
2018-07-09T22:21:39.890Z,69.57
2018-07-09T22:24:08.065Z,70.46
2018-07-09T22:26:36.649Z,69.79
2018-07-09T22:29:05.533Z,70.36
2018-07-09T22:31:35.134Z,70.18
2018-07-09T22:34:04.483Z,70.00
2018-07-09T22:36:34.563Z,70.56
2018-07-09T22:39:04.958Z,71.06
2018-07-09T22:41:34.564Z,70.96
2018-07-09T22:44:18.532Z,70.06
2018-07-09T22:46:48.135Z,70.14
2018-07-09T22:49:17.509Z,69.78
2018-07-09T22:51:48.101Z,70.02
2018-07-09T22:54:18.060Z,70.42
2018-07-09T22:56:47.490Z,71.18
2018-07-09T22:59:16.871Z,71.92
2018-07-09T23:01:46.405Z,71.96
2018-07-09T23:04:16.019Z,71.92
2018-07-09T23:06:46.742Z,71.43
2018-07-09T23:12:34.369Z,71.63
2018-07-09T23:17:18.937Z,72.57
2018-07-09T23:22:03.027Z,72.85
2018-07-09T23:24:31.094Z,73.59
2018-07-09T23:26:59.168Z,73.46
2018-07-09T23:29:27.314Z,73.31
2018-07-09T23:31:55.368Z,73.47
2018-07-09T23:34:23.442Z,73.58
2018-07-09T23:36:51.848Z,73.92
2018-07-09T23:39:19.949Z,74.07
2018-07-09T23:41:48.085Z,73.49
2018-07-09T23:44:16.900Z,73.94
2018-07-09T23:46:45.106Z,74.13
2018-07-09T23:49:13.327Z,74.35
2018-07-09T23:51:41.639Z,75.50
2018-07-09T23:54:09.878Z,75.41
2018-07-09T23:59:26.231Z,75.47
